createdAt,value
2018-05-27T00:00:03.530Z,148302.63
2018-05-27T00:02:32.611Z,148295.11
2018-05-27T00:05:01.500Z,148306.97
2018-05-27T00:07:30.508Z,148308.22
2018-05-27T00:09:59.580Z,148299.47
2018-05-27T00:12:28.868Z,148291.37
2018-05-27T00:14:57.933Z,148281.44
2018-05-27T00:17:26.882Z,148277.66
2018-05-27T00:19:56.081Z,148270.81
2018-05-27T00:22:25.141Z,148270.81
2018-05-27T00:24:54.252Z,148254.66
2018-05-27T00:27:23.807Z,148260.87
2018-05-27T00:29:54.109Z,148249.63
2018-05-27T00:32:23.196Z,148256.52
2018-05-27T00:34:52.334Z,148247.77
2018-05-27T00:37:21.384Z,148249.02
2018-05-27T00:39:50.393Z,148240.94
2018-05-27T00:42:19.335Z,148259.00
2018-05-27T00:44:48.282Z,148240.94
2018-05-27T00:49:52.353Z,148230.36
2018-05-27T00:52:22.165Z,148230.36
2018-05-27T00:54:51.013Z,148229.73
2018-05-27T00:57:21.683Z,148226.02
2018-05-27T00:59:51.663Z,148238.44
2018-05-27T01:02:20.559Z,148226.02
2018-05-27T01:04:49.550Z,148217.31
2018-05-27T01:07:18.678Z,148219.80
2018-05-27T01:09:47.767Z,148224.77
2018-05-27T01:12:16.838Z,148221.03
2018-05-27T01:14:45.933Z,148214.81
2018-05-27T01:17:15.029Z,148214.20
2018-05-27T01:19:44.025Z,148221.66
2018-05-27T01:22:13.063Z,148224.14
2018-05-27T01:24:42.528Z,148217.94
2018-05-27T01:27:12.452Z,148230.98
2018-05-27T01:29:42.361Z,148224.77
2018-05-27T01:32:11.460Z,148234.09
2018-05-27T01:34:40.607Z,148222.91
2018-05-27T01:37:09.548Z,148192.41
2018-05-27T01:39:39.009Z,148237.19
2018-05-27T01:42:09.042Z,148239.69
2018-05-27T01:44:37.967Z,148250.87
2018-05-27T01:47:06.958Z,148244.66
2018-05-27T01:49:36.155Z,148270.19
2018-05-27T01:52:05.167Z,148283.30
2018-05-27T01:54:35.051Z,148274.55
2018-05-27T01:57:07.012Z,148261.50
2018-05-27T01:59:36.060Z,148251.50
2018-05-27T02:02:04.911Z,148247.14
2018-05-27T02:04:35.311Z,148254.66
2018-05-27T02:07:04.210Z,148247.14
2018-05-27T02:09:33.422Z,148263.97
2018-05-27T02:12:02.532Z,148262.73
2018-05-27T02:14:32.498Z,148258.39
2018-05-27T02:17:01.956Z,148260.87
2018-05-27T02:22:05.055Z,148270.81
2018-05-27T02:24:33.995Z,148283.30
2018-05-27T02:27:04.986Z,148288.89
2018-05-27T02:29:35.329Z,148298.84
2018-05-27T02:32:05.075Z,148308.84
2018-05-27T02:34:35.765Z,148298.84
2018-05-27T02:37:04.748Z,148302.63
2018-05-27T02:39:33.655Z,148301.37
2018-05-27T02:42:03.543Z,148303.23
2018-05-27T02:44:32.617Z,148305.72
2018-05-27T02:47:01.555Z,148306.97
2018-05-27T02:49:30.549Z,148300.12
2018-05-27T02:51:59.489Z,148290.14
2018-05-27T02:54:28.434Z,148301.37
2018-05-27T02:56:59.073Z,148305.11
2018-05-27T02:59:28.267Z,148308.84
2018-05-27T03:01:57.368Z,148315.67
2018-05-27T03:04:27.388Z,148302.63
2018-05-27T03:06:56.479Z,148294.48
2018-05-27T03:09:25.884Z,148306.97
2018-05-27T03:14:29.895Z,148288.28
2018-05-27T03:16:59.504Z,148318.16
2018-05-27T03:22:04.168Z,148305.72
2018-05-27T03:24:33.176Z,148325.63
2018-05-27T03:27:02.142Z,148341.17
2018-05-27T03:29:31.253Z,148358.00
2018-05-27T03:32:00.762Z,148371.06
2018-05-27T03:34:31.595Z,148387.86
2018-05-27T03:37:01.509Z,148383.50
2018-05-27T03:45:31.291Z,148494.98
2018-05-27T03:48:00.271Z,148627.66
2018-05-27T03:50:30.369Z,148660.69
2018-05-27T03:53:02.043Z,148590.94
2018-05-27T03:55:31.066Z,148531.73
2018-05-27T03:57:59.890Z,148478.14
2018-05-27T04:00:30.048Z,148438.91
2018-05-27T04:02:58.855Z,148442.69
2018-05-27T04:05:42.166Z,148430.81
2018-05-27T04:08:22.830Z,148412.16
2018-05-27T04:10:52.592Z,148423.34
2018-05-27T04:13:21.541Z,148412.78
2018-05-27T04:15:50.534Z,148408.42
2018-05-27T04:18:19.487Z,148419.62
2018-05-27T04:20:48.497Z,148451.39
2018-05-27T04:23:18.303Z,148435.80
2018-05-27T04:25:47.537Z,148438.91
2018-05-27T04:28:17.313Z,148450.14
2018-05-27T04:30:46.554Z,148459.48
2018-05-27T04:33:15.893Z,148537.39
2018-05-27T04:35:44.840Z,148589.70
2018-05-27T04:38:13.833Z,148820.92
2018-05-27T04:40:43.043Z,149013.63
2018-05-27T04:43:11.980Z,149158.38
2018-05-27T04:45:40.921Z,149236.97
2018-05-27T04:48:12.685Z,149230.72
2018-05-27T04:50:41.602Z,149418.66
2018-05-27T04:53:11.287Z,149446.78
2018-05-27T04:55:40.615Z,149436.80
2018-05-27T04:58:09.628Z,149555.47
2018-05-27T05:00:40.809Z,149649.16
2018-05-27T05:03:09.819Z,149689.20
2018-05-27T05:05:41.734Z,149782.94
2018-05-27T05:08:10.801Z,149678.59
2018-05-27T05:10:42.941Z,149737.94
2018-05-27T05:13:14.808Z,149711.67
2018-05-27T05:15:44.546Z,149845.47
2018-05-27T05:18:21.918Z,149861.08
2018-05-27T05:20:50.832Z,149828.56
2018-05-27T05:23:19.815Z,150104.41
2018-05-27T05:25:48.897Z,149908.59
2018-05-27T05:28:18.807Z,149897.34
2018-05-27T05:30:47.909Z,150026.84
2018-05-27T05:33:19.448Z,149953.61
2018-05-27T05:35:49.382Z,150063.13
2018-05-27T05:38:18.504Z,149911.13
2018-05-27T05:40:47.568Z,149835.44
2018-05-27T05:43:16.669Z,149685.45
2018-05-27T05:45:45.705Z,149750.42
2018-05-27T05:48:15.579Z,149767.95
2018-05-27T05:50:44.466Z,149639.17
2018-05-27T05:53:13.665Z,149857.33
2018-05-27T05:58:16.569Z,149780.44
2018-05-27T06:00:45.836Z,149682.97
2018-05-27T06:03:15.665Z,149621.03
2018-05-27T06:05:44.575Z,149443.66
2018-05-27T06:08:13.515Z,149354.38
2018-05-27T06:10:43.415Z,149639.17
2018-05-27T06:13:12.287Z,149561.08
2018-05-27T06:15:41.372Z,149501.77
2018-05-27T06:18:10.471Z,149740.44
2018-05-27T06:20:39.489Z,149823.56
2018-05-27T06:23:08.563Z,149814.83
2018-05-27T06:25:37.782Z,150082.48
2018-05-27T06:28:06.754Z,150297.78
2018-05-27T06:30:35.765Z,150045.58
2018-05-27T06:33:04.843Z,149652.28
2018-05-27T06:35:33.924Z,149701.06
2018-05-27T06:38:03.047Z,149516.11
2018-05-27T06:40:34.804Z,149365.59
2018-05-27T06:43:03.837Z,149406.19
2018-05-27T06:45:32.891Z,149420.53
2018-05-27T06:48:03.519Z,149503.02
2018-05-27T06:50:33.637Z,149592.95
2018-05-27T06:53:02.755Z,149516.11
2018-05-27T06:55:31.840Z,149484.25
2018-05-27T06:58:00.833Z,149514.23
2018-05-27T07:00:30.306Z,149839.80
2018-05-27T07:05:33.647Z,149616.03
2018-05-27T07:08:02.623Z,149812.28
2018-05-27T07:10:32.459Z,149763.53
2018-05-27T07:13:01.348Z,149856.72
2018-05-27T07:15:30.373Z,149897.34
2018-05-27T07:18:02.096Z,150005.55
2018-05-27T07:20:31.971Z,149953.61
2018-05-27T07:23:01.017Z,149891.72
2018-05-27T07:25:30.824Z,150012.47
2018-05-27T07:27:59.925Z,149999.25
2018-05-27T07:30:28.920Z,149906.72
2018-05-27T07:32:59.601Z,150156.31
2018-05-27T07:35:29.666Z,150316.53
2018-05-27T07:37:58.761Z,150147.56
2018-05-27T07:40:27.855Z,149936.75
2018-05-27T07:42:56.884Z,150132.53
2018-05-27T07:45:25.782Z,149842.92
2018-05-27T07:47:55.666Z,149642.92
2018-05-27T07:50:25.450Z,149761.66
2018-05-27T07:52:54.571Z,149809.16
2018-05-27T07:55:24.609Z,149788.56
2018-05-27T07:57:54.615Z,149841.05
2018-05-27T08:00:23.754Z,149977.39
2018-05-27T08:02:53.736Z,149937.38
2018-05-27T08:05:22.715Z,149812.28
2018-05-27T08:07:51.726Z,149858.58
2018-05-27T08:10:21.430Z,149851.09
2018-05-27T08:12:50.374Z,149707.94
2018-05-27T08:15:19.204Z,149647.92
2018-05-27T08:17:48.273Z,149483.00
2018-05-27T08:20:17.641Z,149542.98
2018-05-27T08:22:46.765Z,149461.75
2018-05-27T08:25:19.449Z,149474.22
2018-05-27T08:27:49.073Z,149536.13
2018-05-27T08:30:18.064Z,149577.34
2018-05-27T08:32:47.147Z,149602.31
2018-05-27T08:35:16.259Z,149582.34
2018-05-27T08:37:45.233Z,149605.44
2018-05-27T08:40:14.169Z,149514.23
2018-05-27T08:42:43.167Z,149531.75
2018-05-27T08:45:12.116Z,149543.61
2018-05-27T08:47:43.372Z,149542.98
2018-05-27T08:50:12.294Z,149548.59
2018-05-27T08:52:41.764Z,149549.22
2018-05-27T08:55:10.757Z,149434.88
2018-05-27T08:57:40.878Z,149473.59
2018-05-27T09:00:09.869Z,149521.72
2018-05-27T09:02:39.685Z,149577.97
2018-05-27T09:05:08.686Z,149618.53
2018-05-27T09:07:37.683Z,149686.70
2018-05-27T09:10:07.382Z,149705.44
2018-05-27T09:12:36.201Z,149767.95
2018-05-27T09:15:05.124Z,149657.91
2018-05-27T09:20:09.097Z,149459.88
2018-05-27T09:22:39.154Z,149411.80
2018-05-27T09:25:10.999Z,149391.84
2018-05-27T09:27:39.924Z,149454.88
2018-05-27T09:30:08.809Z,149469.22
2018-05-27T09:32:37.722Z,149540.50
2018-05-27T09:35:06.749Z,149541.73
2018-05-27T09:37:36.390Z,149499.89
2018-05-27T09:40:05.361Z,149465.48
2018-05-27T09:42:34.282Z,149454.25
2018-05-27T09:45:03.260Z,149551.72
2018-05-27T09:47:33.153Z,149505.50
2018-05-27T09:50:02.072Z,149546.11
2018-05-27T09:52:31.123Z,149547.34
2018-05-27T09:55:02.885Z,149544.23
2018-05-27T09:57:31.924Z,149548.59
2018-05-27T10:00:00.880Z,149542.98
2018-05-27T10:02:30.089Z,149561.70
2018-05-27T10:04:58.974Z,149554.22
2018-05-27T10:07:27.970Z,149543.61
2018-05-27T10:09:59.834Z,149517.98
2018-05-27T10:12:28.727Z,149480.45
2018-05-27T10:14:57.814Z,149515.48
2018-05-27T10:17:27.538Z,149481.08
2018-05-27T10:19:57.252Z,149544.86
2018-05-27T10:22:26.347Z,149516.73
2018-05-27T10:24:55.554Z,149459.25
2018-05-27T10:27:24.593Z,149545.48
2018-05-27T10:29:53.531Z,149501.14
2018-05-27T10:32:22.419Z,149574.19
2018-05-27T10:34:51.313Z,149622.28
2018-05-27T10:37:21.428Z,149561.08
2018-05-27T10:39:51.498Z,149495.53
2018-05-27T10:42:20.446Z,149411.17
2018-05-27T10:44:49.807Z,149477.34
2018-05-27T10:47:20.447Z,149529.88
2018-05-27T10:49:50.202Z,149526.09
2018-05-27T10:52:18.984Z,149559.83
2018-05-27T10:57:22.092Z,149591.70
2018-05-27T10:59:50.919Z,149632.31
2018-05-27T11:02:19.871Z,149612.30
2018-05-27T11:04:48.905Z,149624.16
2018-05-27T11:07:17.893Z,149651.66
2018-05-27T11:09:49.115Z,149655.41
2018-05-27T11:12:18.444Z,149575.44
2018-05-27T11:14:47.444Z,149542.36
2018-05-27T11:17:16.399Z,149553.59
2018-05-27T11:19:45.342Z,149582.34
2018-05-27T11:22:14.116Z,149601.69
2018-05-27T11:24:43.076Z,149550.47
2018-05-27T11:27:11.969Z,149588.59
2018-05-27T11:29:41.067Z,149557.34
2018-05-27T11:34:43.859Z,149475.47
2018-05-27T11:37:12.758Z,149553.59
2018-05-27T11:39:41.793Z,149531.75
2018-05-27T11:42:10.641Z,149461.75
2018-05-27T11:44:39.640Z,149438.03
2018-05-27T11:47:08.528Z,149480.45
2018-05-27T11:49:37.522Z,149510.50
2018-05-27T11:52:07.802Z,149513.00
2018-05-27T11:54:37.289Z,149428.64
2018-05-27T11:57:07.270Z,149461.13
2018-05-27T11:59:36.297Z,149514.23
2018-05-27T12:02:05.210Z,149572.31
2018-05-27T12:04:34.661Z,149554.22
2018-05-27T12:07:04.371Z,149569.19
2018-05-27T12:09:33.373Z,149558.58
2018-05-27T12:12:06.357Z,149529.88
2018-05-27T12:14:35.354Z,149487.36
2018-05-27T12:17:04.414Z,149475.47
2018-05-27T12:19:34.367Z,149490.48
2018-05-27T12:22:03.969Z,149464.86
2018-05-27T12:24:32.861Z,149494.91
2018-05-27T12:27:02.015Z,149523.59
2018-05-27T12:29:30.952Z,149490.48
2018-05-27T12:31:59.843Z,149462.98
2018-05-27T12:34:28.781Z,149489.86
2018-05-27T12:36:57.904Z,149501.77
2018-05-27T12:39:26.873Z,149520.48
2018-05-27T12:41:57.565Z,149519.86
2018-05-27T12:44:26.663Z,149451.14
2018-05-27T12:46:55.550Z,149477.95
2018-05-27T12:49:24.443Z,149508.00
2018-05-27T12:51:53.355Z,149496.16
2018-05-27T12:54:23.253Z,149469.84
2018-05-27T12:56:55.650Z,149429.27
2018-05-27T12:59:24.729Z,149429.88
2018-05-27T13:01:53.645Z,149443.66
2018-05-27T13:04:22.746Z,149409.30
2018-05-27T13:06:51.741Z,149443.66
2018-05-27T13:09:20.696Z,149461.13
2018-05-27T13:11:52.834Z,149500.52
2018-05-27T13:14:21.757Z,149524.22
2018-05-27T13:16:51.049Z,149472.34
2018-05-27T13:19:20.844Z,149466.11
2018-05-27T13:21:49.822Z,149492.41
2018-05-27T13:24:19.872Z,149414.28
2018-05-27T13:26:50.337Z,149420.53
2018-05-27T13:29:20.134Z,149399.31
2018-05-27T13:31:49.139Z,149363.72
2018-05-27T13:34:18.318Z,149398.08
2018-05-27T13:36:47.789Z,149363.09
2018-05-27T13:39:16.860Z,149298.16
2018-05-27T13:41:46.018Z,149275.66
2018-05-27T13:44:14.912Z,149308.80
2018-05-27T13:46:44.117Z,149317.53
2018-05-27T13:49:13.091Z,149228.23
2018-05-27T13:51:42.032Z,149241.33
2018-05-27T13:54:11.044Z,149296.28
2018-05-27T13:56:40.851Z,149253.84
2018-05-27T13:59:09.800Z,149227.61
2018-05-27T14:01:38.829Z,149226.36
2018-05-27T14:04:08.142Z,149219.50
2018-05-27T14:06:37.132Z,149150.89
2018-05-27T14:09:07.230Z,149119.69
2018-05-27T14:11:39.072Z,149168.97
2018-05-27T14:14:07.866Z,149170.84
2018-05-27T14:16:37.062Z,149210.78
2018-05-27T14:19:07.213Z,149195.78
2018-05-27T14:21:36.382Z,149198.31
2018-05-27T14:24:05.475Z,149178.31
2018-05-27T14:26:35.292Z,149163.98
2018-05-27T14:29:04.488Z,149194.53
2018-05-27T14:31:33.481Z,149148.34
2018-05-27T14:34:02.488Z,149148.34
2018-05-27T14:36:31.367Z,149148.97
2018-05-27T14:39:01.080Z,149176.45
2018-05-27T14:41:30.155Z,149170.22
2018-05-27T14:43:59.248Z,149178.94
2018-05-27T14:46:28.260Z,149183.94
2018-05-27T14:48:57.902Z,149158.38
2018-05-27T14:51:27.268Z,149173.33
2018-05-27T14:53:56.773Z,149204.55
2018-05-27T14:56:27.624Z,149142.75
2018-05-27T14:58:57.441Z,149168.34
2018-05-27T15:01:27.371Z,149195.16
2018-05-27T15:03:57.649Z,149160.88
2018-05-27T15:06:26.574Z,149141.50
2018-05-27T15:08:55.461Z,149147.73
2018-05-27T15:11:24.550Z,149135.27
2018-05-27T15:13:54.083Z,149152.14
2018-05-27T15:16:22.969Z,149163.36
2018-05-27T15:18:54.755Z,149124.67
2018-05-27T15:21:23.608Z,149064.13
2018-05-27T15:23:52.709Z,149062.27
2018-05-27T15:26:21.822Z,149062.88
2018-05-27T15:28:51.619Z,149100.89
2018-05-27T15:31:20.615Z,149081.58
2018-05-27T15:33:49.595Z,149051.63
2018-05-27T15:36:18.786Z,149009.87
2018-05-27T15:38:47.682Z,149054.11
2018-05-27T15:41:16.585Z,149034.17
2018-05-27T15:43:45.659Z,148993.00
2018-05-27T15:46:14.685Z,148998.00
2018-05-27T15:48:44.591Z,149007.34
2018-05-27T15:51:13.629Z,148994.88
2018-05-27T15:53:42.581Z,148962.48
2018-05-27T15:56:11.408Z,148994.25
2018-05-27T15:58:40.399Z,148987.41
2018-05-27T16:01:09.362Z,148994.25
2018-05-27T16:03:40.865Z,148950.59
2018-05-27T16:06:09.841Z,148982.42
2018-05-27T16:08:38.701Z,148892.58
2018-05-27T16:11:08.091Z,148913.75
2018-05-27T16:13:37.831Z,148894.44
2018-05-27T16:16:06.953Z,148868.28
2018-05-27T16:18:37.030Z,148849.56
2018-05-27T16:21:05.920Z,148865.13
2018-05-27T16:23:34.998Z,148837.73
2018-05-27T16:26:08.113Z,148813.41
2018-05-27T16:28:37.302Z,148817.13
2018-05-27T16:31:06.308Z,148795.34
2018-05-27T16:33:35.999Z,148811.53
2018-05-27T16:36:04.909Z,148827.77
2018-05-27T16:38:33.799Z,148812.16
2018-05-27T16:41:03.720Z,148828.39
2018-05-27T16:43:32.894Z,148832.12
2018-05-27T16:46:02.111Z,148819.00
2018-05-27T16:48:31.514Z,148794.72
2018-05-27T16:51:00.461Z,148778.53
2018-05-27T16:53:29.524Z,148790.98
2018-05-27T16:55:58.601Z,148783.52
2018-05-27T16:58:27.640Z,148776.05
2018-05-27T17:00:57.076Z,148767.28
2018-05-27T17:03:26.129Z,148761.67
2018-05-27T17:05:55.263Z,148752.95
2018-05-27T17:08:24.291Z,148701.19
2018-05-27T17:10:54.143Z,148715.50
2018-05-27T17:13:23.126Z,148698.08
2018-05-27T17:15:52.330Z,148681.28
2018-05-27T17:18:21.434Z,148661.31
2018-05-27T17:20:50.748Z,148635.17
2018-05-27T17:23:19.613Z,148600.28
2018-05-27T17:25:49.436Z,148570.36
2018-05-27T17:28:18.397Z,148579.06
2018-05-27T17:30:47.451Z,148574.09
2018-05-27T17:33:18.053Z,148572.22
2018-05-27T17:35:47.538Z,148532.98
2018-05-27T17:38:16.621Z,148483.11
2018-05-27T17:40:47.253Z,148485.61
2018-05-27T17:43:16.337Z,148481.88
2018-05-27T17:45:45.239Z,148441.39
2018-05-27T17:48:14.444Z,148429.58
2018-05-27T17:50:43.439Z,148430.19
2018-05-27T17:53:12.531Z,148412.78
2018-05-27T17:55:44.135Z,148392.20
2018-05-27T17:58:13.077Z,148403.45
2018-05-27T18:00:42.376Z,148392.20
2018-05-27T18:03:13.934Z,148390.97
2018-05-27T18:05:43.270Z,148400.34
2018-05-27T18:08:12.371Z,148374.80
2018-05-27T18:10:42.102Z,148377.91
2018-05-27T18:13:11.151Z,148389.09
2018-05-27T18:15:40.461Z,148388.48
2018-05-27T18:20:44.105Z,148346.77
2018-05-27T18:23:14.014Z,148320.66
2018-05-27T18:26:00.381Z,148336.19
2018-05-27T18:28:33.673Z,148334.95
2018-05-27T18:31:02.778Z,148325.00
2018-05-27T18:33:34.931Z,148328.11
2018-05-27T18:36:05.946Z,148321.28
2018-05-27T18:38:34.946Z,148313.81
2018-05-27T18:41:09.874Z,148320.66
2018-05-27T18:43:39.148Z,148316.92
2018-05-27T18:46:08.025Z,148306.97
2018-05-27T18:48:37.198Z,148316.30
2018-05-27T18:51:06.368Z,148313.81
2018-05-27T18:53:35.133Z,148303.86
2018-05-27T18:56:03.999Z,148293.88
2018-05-27T18:58:32.973Z,148282.67
2018-05-27T19:01:02.159Z,148278.28
2018-05-27T19:03:31.251Z,148283.92
2018-05-27T19:06:00.279Z,148293.88
2018-05-27T19:08:29.306Z,148283.92
2018-05-27T19:10:58.210Z,148291.37
2018-05-27T19:13:27.023Z,148298.22
2018-05-27T19:15:55.845Z,148285.16
2018-05-27T19:18:24.687Z,148287.66
2018-05-27T19:20:53.491Z,148288.89
2018-05-27T19:23:22.273Z,148292.00
2018-05-27T19:28:25.419Z,148293.88
2018-05-27T19:30:54.175Z,148294.48
2018-05-27T19:33:22.986Z,148297.59
2018-05-27T19:35:51.814Z,148309.45
2018-05-27T19:38:20.523Z,148306.97
2018-05-27T19:40:49.293Z,148306.97
2018-05-27T19:43:18.125Z,148300.75
2018-05-27T19:45:46.868Z,148319.41
2018-05-27T19:48:15.633Z,148319.41
2018-05-27T19:50:46.106Z,148324.38
2018-05-27T19:53:14.834Z,148328.73
2018-05-27T19:55:43.687Z,148321.28
2018-05-27T19:58:15.442Z,148314.44
2018-05-27T20:00:44.265Z,148324.38
2018-05-27T20:03:12.974Z,148320.03
2018-05-27T20:05:42.684Z,148328.73
2018-05-27T20:08:11.376Z,148316.30
2018-05-27T20:10:40.104Z,148310.70
2018-05-27T20:13:09.812Z,148304.48
2018-05-27T20:15:38.579Z,148316.92
2018-05-27T20:18:07.397Z,148300.12
2018-05-27T20:20:38.075Z,148308.84
2018-05-27T20:23:07.224Z,148321.28
2018-05-27T20:25:36.584Z,148313.81
2018-05-27T20:28:05.566Z,148325.00
2018-05-27T20:30:34.678Z,148315.67
2018-05-27T20:33:04.274Z,148334.33
2018-05-27T20:35:35.938Z,148323.75
2018-05-27T20:38:05.633Z,148313.19
2018-05-27T20:40:34.405Z,148306.34
2018-05-27T20:43:05.098Z,148298.22
2018-05-27T20:45:34.412Z,148294.48
2018-05-27T20:48:04.392Z,148298.22
2018-05-27T20:53:07.026Z,148302.00
2018-05-27T20:55:36.071Z,148302.63
2018-05-27T20:58:05.209Z,148288.89
2018-05-27T21:00:34.121Z,148285.16
2018-05-27T21:03:02.950Z,148288.89
2018-05-27T21:05:32.108Z,148305.72
2018-05-27T21:08:01.045Z,148294.48
2018-05-27T21:10:29.936Z,148286.41
2018-05-27T21:15:32.736Z,148242.17
2018-05-27T21:18:01.942Z,148238.44
2018-05-27T21:20:30.687Z,148233.47
2018-05-27T21:22:59.429Z,148211.09
2018-05-27T21:25:28.166Z,148196.13
2018-05-27T21:27:57.003Z,148189.30
2018-05-27T21:30:25.783Z,148196.13
2018-05-27T21:32:54.672Z,148194.27
2018-05-27T21:35:23.450Z,148189.30
2018-05-27T21:37:52.203Z,148175.62
2018-05-27T21:40:21.144Z,148166.30
2018-05-27T21:42:49.900Z,148146.98
2018-05-27T21:45:18.669Z,148152.58
2018-05-27T21:47:47.411Z,148142.00
2018-05-27T21:50:16.283Z,148132.06
2018-05-27T21:52:45.045Z,148125.84
2018-05-27T21:55:13.843Z,148112.19
2018-05-27T21:57:43.446Z,148102.81
2018-05-27T22:00:12.156Z,148106.55
2018-05-27T22:02:40.959Z,148094.73
2018-05-27T22:05:09.727Z,148090.38
2018-05-27T22:07:38.494Z,148104.67
2018-05-27T22:10:07.248Z,148092.25
2018-05-27T22:12:36.046Z,148098.47
2018-05-27T22:15:04.873Z,148103.44
2018-05-27T22:17:33.559Z,148082.94
2018-05-27T22:20:02.399Z,148065.53
2018-05-27T22:22:32.200Z,148051.19
2018-05-27T22:25:01.045Z,148054.30
2018-05-27T22:27:30.605Z,148068.64
2018-05-27T22:29:59.363Z,148058.66
2018-05-27T22:32:28.242Z,148067.41
2018-05-27T22:34:57.025Z,148077.97
2018-05-27T22:37:25.783Z,148087.91
2018-05-27T22:39:54.545Z,148086.66
2018-05-27T22:42:27.118Z,148081.69
2018-05-27T22:44:55.861Z,148089.14
2018-05-27T22:47:24.563Z,148101.56
2018-05-27T22:49:54.208Z,148099.08
2018-05-27T22:52:22.903Z,148115.28
2018-05-27T22:54:51.687Z,148112.81
2018-05-27T22:57:22.705Z,148115.28
2018-05-27T22:59:51.582Z,148122.13
2018-05-27T23:02:20.345Z,148119.64
2018-05-27T23:04:49.149Z,148133.94
2018-05-27T23:07:17.982Z,148137.03
2018-05-27T23:09:46.802Z,148133.94
2018-05-27T23:12:21.341Z,148136.41
2018-05-27T23:14:50.121Z,148137.66
2018-05-27T23:17:18.932Z,148137.03
2018-05-27T23:19:47.941Z,148150.09
2018-05-27T23:22:16.714Z,148140.14
2018-05-27T23:24:45.585Z,148139.52
2018-05-27T23:27:14.436Z,148138.28
2018-05-27T23:29:43.341Z,148127.09
2018-05-27T23:32:12.104Z,148133.31
2018-05-27T23:34:42.633Z,148130.81
2018-05-27T23:37:11.843Z,148120.88
2018-05-27T23:39:40.778Z,148123.38
2018-05-27T23:42:12.667Z,148123.38
2018-05-27T23:44:41.522Z,148110.89
2018-05-27T23:47:10.329Z,148120.88
2018-05-27T23:49:39.999Z,148121.50
2018-05-27T23:52:09.098Z,148122.75
2018-05-27T23:54:38.021Z,148105.92
2018-05-27T23:57:06.978Z,148110.89
2018-05-27T23:59:35.874Z,148099.08
